createdAt,value
2018-09-23T00:02:22.462Z,85.82
2018-09-23T00:04:50.430Z,85.36
2018-09-23T00:07:18.422Z,85.68
2018-09-23T00:09:46.570Z,84.89
2018-09-23T00:12:14.548Z,84.84
2018-09-23T00:14:42.543Z,85.43
2018-09-23T00:17:10.526Z,85.59
2018-09-23T00:19:38.510Z,85.72
2018-09-23T00:22:06.811Z,85.38
2018-09-23T00:24:34.875Z,85.26
2018-09-23T00:27:02.841Z,85.67
2018-09-23T00:29:36.536Z,85.39
2018-09-23T00:32:04.469Z,85.84
2018-09-23T00:34:32.456Z,85.32
2018-09-23T00:37:07.182Z,85.82
2018-09-23T00:39:35.447Z,85.82
2018-09-23T00:42:03.419Z,85.89
2018-09-23T00:44:31.464Z,85.99
2018-09-23T00:46:59.460Z,85.60
2018-09-23T00:49:27.732Z,85.54
2018-09-23T00:51:55.805Z,85.33
2018-09-23T00:54:23.849Z,85.47
2018-09-23T00:56:51.910Z,85.12
2018-09-23T00:59:19.934Z,84.78
2018-09-23T01:01:47.894Z,84.94
2018-09-23T01:04:16.221Z,85.07
2018-09-23T01:06:44.151Z,84.98
2018-09-23T01:09:12.176Z,85.07
2018-09-23T01:11:40.163Z,85.32
2018-09-23T01:14:08.186Z,84.77
2018-09-23T01:16:36.146Z,85.57
2018-09-23T01:19:04.155Z,85.39
2018-09-23T01:21:32.084Z,84.65
2018-09-23T01:24:00.055Z,85.12
2018-09-23T01:26:28.140Z,84.77
2018-09-23T01:28:56.220Z,85.18
2018-09-23T01:31:24.333Z,84.95
2018-09-23T01:33:52.345Z,84.81
2018-09-23T01:36:20.347Z,84.71
2018-09-23T01:38:48.415Z,84.62
2018-09-23T01:41:16.435Z,84.42
2018-09-23T01:43:44.485Z,84.42
2018-09-23T01:46:12.531Z,83.29
2018-09-23T01:48:40.548Z,82.99
2018-09-23T01:51:08.679Z,83.03
2018-09-23T01:53:36.649Z,82.72
2018-09-23T01:56:04.825Z,83.11
2018-09-23T01:58:32.885Z,82.14
2018-09-23T02:01:00.901Z,82.85
2018-09-23T02:03:28.953Z,82.80
2018-09-23T02:05:57.032Z,82.40
2018-09-23T02:08:25.205Z,82.12
2018-09-23T02:10:53.400Z,82.88
2018-09-23T02:13:21.500Z,82.81
2018-09-23T02:15:49.548Z,82.59
2018-09-23T02:18:17.488Z,82.27
2018-09-23T02:20:45.588Z,82.27
2018-09-23T02:23:13.603Z,82.28
2018-09-23T02:25:41.628Z,82.43
2018-09-23T02:28:09.581Z,82.86
2018-09-23T02:30:37.608Z,82.89
2018-09-23T02:33:12.160Z,83.41
2018-09-23T02:35:40.320Z,82.93
2018-09-23T02:38:08.300Z,82.93
2018-09-23T02:40:36.266Z,83.16
2018-09-23T02:43:04.256Z,83.02
2018-09-23T02:45:32.376Z,83.43
2018-09-23T02:48:00.454Z,83.75
2018-09-23T02:50:28.648Z,83.37
2018-09-23T02:52:56.630Z,83.14
2018-09-23T02:55:24.713Z,82.78
2018-09-23T02:57:52.792Z,82.45
2018-09-23T03:00:20.815Z,82.66
2018-09-23T03:02:48.960Z,82.73
2018-09-23T03:05:16.960Z,81.90
2018-09-23T03:07:45.020Z,81.85
2018-09-23T03:10:13.150Z,82.01
2018-09-23T03:12:41.202Z,82.82
2018-09-23T03:15:09.183Z,82.70
2018-09-23T03:17:37.188Z,82.59
2018-09-23T03:20:05.381Z,83.09
2018-09-23T03:22:33.354Z,83.39
2018-09-23T03:25:01.276Z,82.94
2018-09-23T03:27:29.353Z,82.96
2018-09-23T03:29:57.296Z,83.56
2018-09-23T03:32:25.381Z,83.27
2018-09-23T03:34:53.361Z,83.51
2018-09-23T03:37:21.490Z,83.13
2018-09-23T03:39:49.510Z,83.35
2018-09-23T03:42:17.654Z,83.71
2018-09-23T03:44:45.590Z,83.48
2018-09-23T03:47:13.593Z,83.44
2018-09-23T03:49:41.573Z,83.75
2018-09-23T03:52:09.559Z,83.49
2018-09-23T03:54:37.476Z,83.70
2018-09-23T03:57:05.446Z,84.06
2018-09-23T03:59:33.422Z,84.11
2018-09-23T04:02:01.407Z,84.13
2018-09-23T04:04:29.452Z,83.66
2018-09-23T04:06:57.502Z,84.68
2018-09-23T04:09:25.544Z,84.40
2018-09-23T04:11:53.726Z,84.76
2018-09-23T04:14:22.816Z,84.59
2018-09-23T04:16:50.799Z,84.49
2018-09-23T04:19:18.770Z,84.66
2018-09-23T04:21:46.749Z,84.77
2018-09-23T04:24:14.696Z,84.93
2018-09-23T04:26:42.705Z,84.82
2018-09-23T04:29:10.661Z,85.35
2018-09-23T04:31:38.666Z,85.02
2018-09-23T04:34:06.820Z,84.56
2018-09-23T04:36:34.798Z,84.85
2018-09-23T04:39:03.163Z,84.73
2018-09-23T04:41:32.210Z,84.54
2018-09-23T04:44:00.208Z,84.27
2018-09-23T04:46:28.285Z,84.15
2018-09-23T04:48:56.237Z,84.52
2018-09-23T04:51:24.265Z,84.68
2018-09-23T04:53:52.256Z,85.24
2018-09-23T04:56:20.182Z,84.89
2018-09-23T04:58:48.153Z,84.94
2018-09-23T05:01:16.120Z,84.38
2018-09-23T05:03:44.065Z,84.63
2018-09-23T05:06:12.056Z,84.56
2018-09-23T05:08:40.088Z,84.37
2018-09-23T05:11:08.133Z,84.39
2018-09-23T05:13:36.216Z,84.43
2018-09-23T05:16:04.224Z,84.56
2018-09-23T05:18:32.294Z,84.52
2018-09-23T05:21:00.400Z,84.20
2018-09-23T05:23:28.393Z,84.38
2018-09-23T05:25:56.461Z,84.32
2018-09-23T05:28:24.805Z,83.65
2018-09-23T05:30:52.902Z,83.98
2018-09-23T05:33:21.021Z,83.92
2018-09-23T05:35:49.130Z,83.67
2018-09-23T05:38:17.148Z,84.07
2018-09-23T05:40:45.086Z,83.69
2018-09-23T05:43:13.106Z,83.57
2018-09-23T05:45:41.071Z,83.60
2018-09-23T05:48:09.030Z,83.41
2018-09-23T05:50:37.081Z,83.07
2018-09-23T05:53:05.226Z,83.13
2018-09-23T05:55:33.220Z,83.36
2018-09-23T05:58:01.226Z,82.71
2018-09-23T06:00:31.611Z,83.71
2018-09-23T06:02:59.795Z,83.26
2018-09-23T06:05:27.760Z,83.69
2018-09-23T06:07:55.766Z,83.99
2018-09-23T06:10:23.728Z,83.84
2018-09-23T06:12:51.769Z,84.10
2018-09-23T06:15:19.736Z,83.32
2018-09-23T06:17:47.860Z,83.54
2018-09-23T06:20:15.770Z,83.94
2018-09-23T06:22:43.741Z,84.59
2018-09-23T06:25:11.778Z,84.08
2018-09-23T06:27:39.788Z,84.26
2018-09-23T06:30:07.921Z,83.62
2018-09-23T06:32:35.915Z,83.77
2018-09-23T06:35:03.991Z,84.04
2018-09-23T06:37:32.001Z,83.98
2018-09-23T06:39:59.985Z,83.24
2018-09-23T06:42:28.045Z,83.60
2018-09-23T06:44:56.028Z,84.01
2018-09-23T06:47:24.115Z,83.59
2018-09-23T06:49:52.097Z,83.17
2018-09-23T06:52:20.062Z,82.84
2018-09-23T06:54:48.077Z,83.17
2018-09-23T06:57:16.051Z,82.84
2018-09-23T06:59:44.000Z,82.78
2018-09-23T07:02:11.886Z,82.80
2018-09-23T07:04:40.015Z,83.28
2018-09-23T07:07:07.893Z,82.34
2018-09-23T07:09:35.892Z,83.04
2018-09-23T07:12:03.886Z,83.12
2018-09-23T07:14:31.961Z,83.20
2018-09-23T07:16:59.897Z,83.69
2018-09-23T07:19:28.040Z,83.22
2018-09-23T07:21:56.094Z,83.23
2018-09-23T07:24:24.214Z,83.67
2018-09-23T07:26:52.335Z,83.25
2018-09-23T07:29:20.555Z,83.94
2018-09-23T07:31:48.640Z,83.24
2018-09-23T07:34:16.702Z,83.60
2018-09-23T07:36:44.779Z,83.57
2018-09-23T07:39:12.763Z,83.38
2018-09-23T07:41:40.713Z,83.58
2018-09-23T07:44:09.108Z,83.07
2018-09-23T07:46:37.073Z,83.65
2018-09-23T07:49:05.368Z,83.65
2018-09-23T07:51:33.373Z,83.20
2018-09-23T07:54:01.477Z,83.75
2018-09-23T07:56:29.615Z,83.85
2018-09-23T07:58:57.576Z,83.21
2018-09-23T08:01:25.565Z,83.08
2018-09-23T08:03:53.505Z,83.33
2018-09-23T08:06:21.461Z,83.28
2018-09-23T08:08:49.336Z,82.84
2018-09-23T08:11:17.520Z,83.58
2018-09-23T08:13:45.682Z,83.24
2018-09-23T08:16:13.595Z,83.40
2018-09-23T08:18:41.563Z,83.42
2018-09-23T08:21:09.871Z,83.26
2018-09-23T08:23:38.011Z,82.88
2018-09-23T08:26:06.515Z,83.04
2018-09-23T08:28:34.453Z,83.85
2018-09-23T08:31:02.402Z,84.20
2018-09-23T08:33:30.525Z,84.33
2018-09-23T08:35:58.541Z,84.14
2018-09-23T08:38:26.431Z,84.66
2018-09-23T08:40:54.385Z,84.45
2018-09-23T08:43:22.442Z,85.04
2018-09-23T08:45:50.697Z,85.47
2018-09-23T08:48:18.751Z,84.80
2018-09-23T08:50:46.720Z,84.91
2018-09-23T08:53:14.693Z,85.38
2018-09-23T08:55:42.719Z,85.21
2018-09-23T08:58:10.865Z,85.60
2018-09-23T09:00:38.893Z,84.11
2018-09-23T09:03:07.014Z,85.71
2018-09-23T09:05:34.957Z,84.89
2018-09-23T09:08:02.887Z,84.54
2018-09-23T09:10:30.852Z,83.71
2018-09-23T09:12:58.888Z,83.66
2018-09-23T09:15:27.085Z,83.74
2018-09-23T09:17:55.009Z,83.67
2018-09-23T09:20:23.110Z,83.04
2018-09-23T09:22:51.274Z,82.58
2018-09-23T09:25:19.277Z,83.36
2018-09-23T09:27:53.296Z,83.69
2018-09-23T09:30:27.530Z,83.75
2018-09-23T09:32:55.461Z,84.46
2018-09-23T09:35:34.122Z,83.76
2018-09-23T09:38:02.736Z,84.23
2018-09-23T09:40:35.086Z,85.72
2018-09-23T09:43:08.445Z,85.44
2018-09-23T09:45:47.142Z,85.03
2018-09-23T09:48:23.071Z,86.36
2018-09-23T09:51:23.991Z,86.93
2018-09-23T09:53:56.959Z,87.19
2018-09-23T09:56:26.500Z,87.27
2018-09-23T09:58:58.173Z,87.30
2018-09-23T10:01:27.496Z,87.96
2018-09-23T10:03:55.579Z,88.31
2018-09-23T10:06:24.539Z,88.66
2018-09-23T10:08:52.543Z,88.88
2018-09-23T10:11:21.431Z,89.39
2018-09-23T10:13:50.402Z,88.76
2018-09-23T10:16:18.645Z,88.69
2018-09-23T10:18:46.815Z,89.27
2018-09-23T10:21:15.025Z,89.92
2018-09-23T10:23:43.384Z,89.90
2018-09-23T10:26:11.723Z,90.49
2018-09-23T10:28:40.056Z,90.53
2018-09-23T10:31:08.334Z,90.16
2018-09-23T10:33:36.431Z,89.51
2018-09-23T10:36:04.650Z,91.12
2018-09-23T10:38:32.789Z,91.10
2018-09-23T10:41:01.359Z,91.30
2018-09-23T10:43:29.566Z,91.53
2018-09-23T10:45:57.962Z,91.42
2018-09-23T10:48:26.087Z,91.74
2018-09-23T10:50:54.441Z,92.20
2018-09-23T10:53:22.570Z,92.08
2018-09-23T10:55:50.831Z,91.76
2018-09-23T10:58:18.955Z,91.84
2018-09-23T11:00:47.122Z,92.40
2018-09-23T11:03:15.261Z,92.41
2018-09-23T11:05:43.602Z,92.30
2018-09-23T11:08:11.821Z,92.10
2018-09-23T11:10:40.082Z,92.21
2018-09-23T11:13:08.530Z,92.08
2018-09-23T11:15:36.631Z,92.05
2018-09-23T11:18:04.958Z,92.75
2018-09-23T11:20:33.153Z,92.27
2018-09-23T11:23:01.411Z,93.08
2018-09-23T11:25:29.711Z,92.88
2018-09-23T11:27:57.879Z,92.91
2018-09-23T11:30:26.104Z,92.45
2018-09-23T11:32:54.390Z,92.89
2018-09-23T11:35:22.591Z,92.54
2018-09-23T11:37:50.870Z,92.51
2018-09-23T11:40:19.290Z,92.57
2018-09-23T11:42:47.574Z,92.81
2018-09-23T11:45:15.756Z,93.01
2018-09-23T11:47:44.058Z,92.73
2018-09-23T11:50:12.286Z,92.49
2018-09-23T11:52:40.517Z,91.87
2018-09-23T11:55:08.753Z,92.84
2018-09-23T11:57:36.959Z,92.45
2018-09-23T12:00:06.108Z,92.08
2018-09-23T12:02:34.510Z,92.30
2018-09-23T12:05:02.780Z,92.02
2018-09-23T12:07:31.110Z,91.71
2018-09-23T12:09:59.324Z,91.66
2018-09-23T12:12:27.659Z,91.63
2018-09-23T12:14:55.906Z,91.61
2018-09-23T12:17:24.272Z,91.63
2018-09-23T12:19:52.537Z,91.32
2018-09-23T12:22:20.777Z,91.14
2018-09-23T12:24:49.035Z,91.67
2018-09-23T12:27:17.319Z,91.63
2018-09-23T12:29:45.538Z,91.68
2018-09-23T12:32:13.920Z,91.92
2018-09-23T12:34:42.132Z,91.63
2018-09-23T12:37:10.620Z,91.89
2018-09-23T12:39:38.778Z,91.61
2018-09-23T12:42:07.384Z,91.63
2018-09-23T12:44:35.604Z,91.88
2018-09-23T12:47:03.890Z,91.28
2018-09-23T12:49:32.118Z,91.15
2018-09-23T12:52:01.271Z,91.56
2018-09-23T12:54:29.659Z,91.53
2018-09-23T12:56:57.902Z,91.88
2018-09-23T12:59:26.109Z,91.48
2018-09-23T13:01:54.332Z,91.40
2018-09-23T13:04:23.677Z,90.87
2018-09-23T13:06:52.126Z,90.60
2018-09-23T13:09:20.431Z,91.24
2018-09-23T13:11:49.249Z,90.99
2018-09-23T13:14:17.629Z,91.44
2018-09-23T13:16:46.408Z,90.91
2018-09-23T13:19:14.628Z,90.68
2018-09-23T13:21:43.074Z,90.84
2018-09-23T13:24:11.501Z,90.39
2018-09-23T13:26:39.727Z,91.39
2018-09-23T13:29:08.060Z,91.37
2018-09-23T13:31:36.327Z,90.49
2018-09-23T13:34:04.621Z,90.18
2018-09-23T13:36:34.852Z,90.12
2018-09-23T13:39:04.465Z,90.31
2018-09-23T13:41:33.805Z,90.74
2018-09-23T13:44:02.365Z,90.72
2018-09-23T13:46:31.930Z,90.58
2018-09-23T13:49:00.868Z,90.94
2018-09-23T13:51:29.066Z,90.97
2018-09-23T13:53:58.288Z,91.52
2018-09-23T13:56:26.539Z,91.62
2018-09-23T13:58:55.657Z,91.83
2018-09-23T14:01:24.673Z,91.78
2018-09-23T14:03:52.955Z,91.66
2018-09-23T14:06:22.153Z,91.42
2018-09-23T14:08:50.489Z,90.72
2018-09-23T14:11:19.906Z,91.00
2018-09-23T14:16:22.651Z,90.50
2018-09-23T14:19:01.150Z,90.60
2018-09-23T14:21:46.465Z,90.33
2018-09-23T14:24:26.369Z,90.27
2018-09-23T14:27:05.532Z,90.08
2018-09-23T14:29:39.090Z,90.45
2018-09-23T14:36:47.764Z,91.77
2018-09-23T14:39:23.801Z,91.43
2018-09-23T14:41:58.685Z,91.30
2018-09-23T14:44:37.344Z,90.94
2018-09-23T14:47:08.542Z,90.62
2018-09-23T14:49:49.762Z,90.66
2018-09-23T14:52:22.274Z,90.67
2018-09-23T14:54:51.539Z,90.92
2018-09-23T14:57:26.524Z,90.81
2018-09-23T14:59:55.485Z,90.44
2018-09-23T15:02:28.445Z,90.28
2018-09-23T15:04:58.742Z,91.02
2018-09-23T15:07:27.633Z,89.87
2018-09-23T15:10:01.393Z,90.08
2018-09-23T15:12:31.554Z,90.37
2018-09-23T15:15:04.918Z,90.78
2018-09-23T15:17:44.270Z,89.86
2018-09-23T15:20:20.493Z,89.66
2018-09-23T15:22:58.315Z,88.97
2018-09-23T15:25:32.078Z,86.98
2018-09-23T15:28:18.526Z,87.70
2018-09-23T15:30:58.408Z,88.73
2018-09-23T15:33:29.319Z,89.64
2018-09-23T15:35:58.097Z,89.20
2018-09-23T15:38:27.009Z,88.34
2018-09-23T15:40:56.352Z,88.13
2018-09-23T15:43:24.663Z,88.51
2018-09-23T15:45:57.931Z,88.31
2018-09-23T15:48:27.018Z,88.17
2018-09-23T15:50:57.386Z,87.27
2018-09-23T15:53:27.230Z,87.56
2018-09-23T15:55:56.605Z,87.42
2018-09-23T15:58:26.434Z,87.86
2018-09-23T16:01:08.077Z,87.54
2018-09-23T16:03:40.863Z,88.00
2018-09-23T16:15:33.720Z,88.54
2018-09-23T16:18:17.535Z,89.44
2018-09-23T16:20:57.298Z,88.86
2018-09-23T16:28:38.105Z,89.49
2018-09-23T16:31:18.135Z,89.46
2018-09-23T16:33:52.117Z,89.01
2018-09-23T16:36:22.980Z,88.68
2018-09-23T16:38:52.708Z,88.42
2018-09-23T16:41:23.635Z,87.95
2018-09-23T16:43:52.028Z,87.68
2018-09-23T16:46:20.433Z,87.35
2018-09-23T16:48:48.823Z,87.45
2018-09-23T16:51:17.301Z,88.12
2018-09-23T16:53:45.583Z,88.18
2018-09-23T16:56:14.025Z,87.93
2018-09-23T16:58:42.281Z,88.20
2018-09-23T17:01:10.641Z,88.69
2018-09-23T17:03:38.933Z,88.56
2018-09-23T17:06:07.163Z,88.30
2018-09-23T17:08:35.410Z,88.35
2018-09-23T17:11:03.930Z,88.92
2018-09-23T17:13:32.269Z,89.03
2018-09-23T17:16:00.525Z,89.11
2018-09-23T17:18:30.731Z,89.18
2018-09-23T17:21:02.976Z,88.51
2018-09-23T17:23:31.945Z,89.20
2018-09-23T17:26:00.313Z,89.49
2018-09-23T17:28:28.784Z,89.57
2018-09-23T17:30:57.864Z,89.30
2018-09-23T17:33:26.110Z,89.70
2018-09-23T17:35:54.516Z,89.22
2018-09-23T17:38:23.496Z,88.76
2018-09-23T17:40:52.451Z,89.60
2018-09-23T17:43:24.123Z,89.30
2018-09-23T17:46:31.007Z,89.60
2018-09-23T17:49:28.027Z,89.32
2018-09-23T19:11:36.203Z,89.77
2018-09-23T19:17:40.147Z,89.89
2018-09-23T19:20:21.283Z,89.84
2018-09-23T19:23:00.437Z,89.32
2018-09-23T19:25:46.082Z,89.41
2018-09-23T19:34:04.020Z,89.12
2018-09-23T19:36:39.393Z,89.27
2018-09-23T19:39:10.474Z,89.61
2018-09-23T19:41:42.168Z,89.26
2018-09-23T19:44:10.644Z,89.14
2018-09-23T19:46:38.746Z,89.24
2018-09-23T19:49:07.083Z,89.38
2018-09-23T19:51:35.202Z,89.04
2018-09-23T19:54:04.583Z,88.79
2018-09-23T19:56:32.711Z,88.76
2018-09-23T19:59:01.015Z,88.77
2018-09-23T20:01:29.255Z,88.78
2018-09-23T20:03:59.133Z,89.06
2018-09-23T20:06:27.320Z,88.66
2018-09-23T20:08:56.341Z,88.36
2018-09-23T20:11:24.750Z,88.74
2018-09-23T20:13:53.001Z,88.50
2018-09-23T20:16:21.141Z,88.46
2018-09-23T20:18:49.370Z,88.82
2018-09-23T20:21:17.522Z,88.41
2018-09-23T20:23:45.750Z,88.79
2018-09-23T20:26:13.733Z,88.47
2018-09-23T20:28:42.019Z,89.13
2018-09-23T20:31:10.287Z,89.45
2018-09-23T20:33:38.693Z,88.51
2018-09-23T20:36:06.976Z,89.14
2018-09-23T20:38:35.201Z,89.07
2018-09-23T20:41:03.378Z,88.98
2018-09-23T20:43:31.517Z,88.68
2018-09-23T20:45:59.805Z,89.36
2018-09-23T20:48:28.083Z,88.92
2018-09-23T20:50:56.222Z,89.36
2018-09-23T20:53:24.507Z,88.72
2018-09-23T20:55:52.639Z,88.45
2018-09-23T20:58:20.890Z,88.47
2018-09-23T21:00:49.072Z,88.89
2018-09-23T21:03:17.264Z,88.17
2018-09-23T21:05:45.612Z,88.29
2018-09-23T21:08:13.882Z,88.14
2018-09-23T21:10:42.060Z,88.65
2018-09-23T21:13:10.227Z,88.04
2018-09-23T21:15:38.317Z,88.44
2018-09-23T21:18:06.519Z,88.01
2018-09-23T21:20:34.775Z,88.00
2018-09-23T21:23:02.919Z,88.09
2018-09-23T21:25:30.942Z,88.21
2018-09-23T21:27:58.900Z,88.83
2018-09-23T21:30:27.101Z,88.30
2018-09-23T21:32:55.072Z,88.18
2018-09-23T21:35:23.355Z,88.82
2018-09-23T21:37:51.883Z,88.04
2018-09-23T21:40:19.948Z,88.17
2018-09-23T21:42:47.908Z,87.85
2018-09-23T21:45:16.027Z,87.92
2018-09-23T21:47:44.028Z,88.36
2018-09-23T21:50:12.357Z,88.25
2018-09-23T21:52:40.221Z,88.28
2018-09-23T21:55:08.304Z,88.49
2018-09-23T21:57:36.365Z,88.58
2018-09-23T22:00:06.126Z,88.74
2018-09-23T22:02:34.032Z,88.94
2018-09-23T22:05:02.035Z,89.06
2018-09-23T22:07:30.042Z,89.07
2018-09-23T22:09:58.032Z,89.11
2018-09-23T22:12:26.043Z,89.06
2018-09-23T22:14:54.047Z,89.22
2018-09-23T22:17:21.996Z,89.43
2018-09-23T22:19:49.946Z,89.19
2018-09-23T22:22:17.826Z,89.67
2018-09-23T22:24:45.849Z,89.59
2018-09-23T22:27:13.786Z,89.52
2018-09-23T22:29:41.840Z,89.28
2018-09-23T22:32:09.792Z,89.30
2018-09-23T22:34:37.836Z,89.78
2018-09-23T22:37:06.074Z,89.63
2018-09-23T22:39:34.113Z,89.24
2018-09-23T22:42:02.062Z,89.35
2018-09-23T22:44:30.125Z,89.24
2018-09-23T22:46:58.159Z,89.39
2018-09-23T22:49:26.169Z,89.77
2018-09-23T22:51:54.185Z,89.32
2018-09-23T22:54:22.319Z,89.83
2018-09-23T22:56:50.502Z,88.99
2018-09-23T22:59:18.442Z,89.16
2018-09-23T23:01:46.433Z,88.95
2018-09-23T23:04:14.315Z,88.83
2018-09-23T23:06:42.245Z,88.67
2018-09-23T23:09:10.168Z,88.47
2018-09-23T23:11:38.234Z,88.71
2018-09-23T23:14:06.320Z,88.54
2018-09-23T23:16:34.273Z,88.76
2018-09-23T23:19:03.350Z,87.83
2018-09-23T23:21:31.335Z,87.37
2018-09-23T23:23:59.324Z,86.86
2018-09-23T23:26:27.301Z,87.52
2018-09-23T23:28:55.227Z,86.97
2018-09-23T23:31:23.180Z,86.84
2018-09-23T23:33:51.129Z,87.05
2018-09-23T23:36:19.096Z,87.26
2018-09-23T23:38:47.018Z,87.47
2018-09-23T23:41:15.043Z,87.22
2018-09-23T23:43:43.036Z,86.85
2018-09-23T23:46:11.078Z,86.75
2018-09-23T23:48:38.973Z,86.56
2018-09-23T23:51:06.980Z,86.50
2018-09-23T23:53:34.937Z,86.58
2018-09-23T23:56:03.189Z,86.11
2018-09-23T23:58:31.170Z,86.42
